Terminal Aerodrome Forecast
Issued by NWS Houston/Galveston TX

Home | Current Version | Previous Version | Text Only | Print | Product List | Glossary On
Versions: 1 2 3 4 5 6 7 8 9 10 11 12 13 14 15 16 17 18 19 20 21 22 23 24 25 26 27 28 29 30 31 32 33 34
000
FTUS44 KHGX 240858 AAA
TAFHOU
TAF AMD
KHOU 240858Z 2409/2506 13005KT P6SM FEW016 SCT060
      TEMPO 2411/2415 BKN015 BKN025
     FM241500 14009KT P6SM FEW015 BKN025
     FM241800 14014KT P6SM SCT025 BKN035
     FM250200 14007KT P6SM SCT250=

USA.gov is the U.S. government's official web portal to all federal, state and local government web resources and services.